Terminal Aerodrome Forecast
Issued by NWS

Home | Current Version | Previous Version | Text Only | Print | Product List | Glossary On
Versions: 1 2 3 4 5 6 7 8 9 10 11 12 13 14 15 16 17 18 19 20
000
FTUS44 KHGX 272341
TAFCXO
TAF
KCXO 272341Z 2800/2824 14014G20KT P6SM SCT030 BKN045 BKN060
     FM280300 15007KT P6SM BKN020
     FM280900 17008KT 6SM BR BKN010
     FM281600 17012KT P6SM BKN024
     FM281800 18012G19KT P6SM SCT040=

USA.gov is the U.S. government's official web portal to all federal, state and local government web resources and services.